Time;durP1;ratioP1;P1;durP2;ratioP2;P2;SDS_P1;SDS_P2;PMS_P1;PMS_P2;Temp;Humidity;BMP_temperature;BMP_pressure;BME280_temperature;BME280_humidity;BME280_pressure;Samples;Min_cycle;Max_cycle;Signal;HPM_P1;HPM_P2
2021/05/31 00:00:42;;;;;;;2.00;1.90;;;15.00;99.90;;;;;;5032279;28;20021;-77
2021/05/31 00:03:09;;;;;;;2.10;1.85;;;15.10;99.60;;;;;;5015296;28;20026;-74
2021/05/31 00:05:40;;;;;;;2.10;2.00;;;15.10;99.70;;;;;;5014951;28;20068;-73
2021/05/31 00:08:08;;;;;;;1.90;1.80;;;15.00;99.50;;;;;;5015263;28;20056;-76
2021/05/31 00:10:34;;;;;;;2.17;2.08;;;15.00;99.90;;;;;;5032646;28;20075;-77
2021/05/31 00:13:02;;;;;;;2.00;1.90;;;15.10;99.90;;;;;;5033189;28;20021;-75
2021/05/31 00:15:32;;;;;;;1.85;1.70;;;15.00;99.90;;;;;;5008063;28;20502;-75
2021/05/31 00:18:00;;;;;;;2.20;1.95;;;15.10;99.90;;;;;;5035339;28;20038;-75
2021/05/31 00:20:34;;;;;;;1.90;1.80;;;15.10;99.60;;;;;;5034999;28;20352;-75
2021/05/31 00:23:07;;;;;;;2.00;1.83;;;15.10;99.10;;;;;;5036200;28;20850;-75
2021/05/31 00:25:35;;;;;;;1.85;1.70;;;15.10;99.10;;;;;;5035018;28;20036;-74
2021/05/31 00:28:05;;;;;;;2.00;1.90;;;15.10;99.20;;;;;;5066472;28;20393;-74
2021/05/31 00:30:34;;;;;;;2.20;1.95;;;15.00;98.80;;;;;;5077147;28;20032;-75
2021/05/31 00:33:00;;;;;;;1.67;1.58;;;15.00;99.00;;;;;;5058840;28;20024;-75
2021/05/31 00:35:26;;;;;;;2.28;2.00;;;15.00;99.20;;;;;;5059132;28;20101;-75
2021/05/31 00:37:55;;;;;;;2.00;1.90;;;15.00;99.10;;;;;;5058627;28;20466;-75
2021/05/31 00:40:23;;;;;;;2.08;1.98;;;15.00;98.90;;;;;;5058966;28;20025;-75
2021/05/31 00:42:49;;;;;;;1.92;1.73;;;15.00;99.20;;;;;;5059081;28;20524;-77
2021/05/31 00:45:16;;;;;;;1.65;1.52;;;15.00;98.90;;;;;;5075065;28;20047;-75
2021/05/31 00:47:41;;;;;;;2.20;2.00;;;15.10;99.10;;;;;;5077104;28;20020;-74
2021/05/31 00:50:08;;;;;;;1.60;1.50;;;15.00;98.80;;;;;;5059087;28;20473;-75
2021/05/31 00:52:34;;;;;;;2.17;1.98;;;15.00;98.90;;;;;;5076727;28;20095;-75
2021/05/31 00:55:00;;;;;;;1.70;1.60;;;15.10;98.80;;;;;;5076643;28;20099;-73
2021/05/31 00:57:31;;;;;;;1.90;1.80;;;15.10;99.00;;;;;;5058871;28;20021;-75
2021/05/31 00:59:56;;;;;;;1.70;1.60;;;15.00;99.00;;;;;;5076495;28;20470;-74
2021/05/31 01:02:28;;;;;;;1.70;1.60;;;15.10;99.00;;;;;;5076973;28;20028;-75
2021/05/31 01:04:56;;;;;;;2.10;1.90;;;15.00;98.90;;;;;;5076503;28;20021;-75
2021/05/31 01:07:36;;;;;;;1.80;1.70;;;15.00;98.90;;;;;;5041717;28;20052;-77
2021/05/31 01:10:17;;;;;;;2.90;1.70;;;15.00;98.70;;;;;;5058216;28;20025;-76
2021/05/31 01:13:00;;;;;;;3.20;2.00;;;15.00;98.90;;;;;;5058083;28;20442;-74
2021/05/31 01:15:27;;;;;;;1.95;1.45;;;15.00;98.60;;;;;;5074652;28;20025;-75
2021/05/31 01:18:09;;;;;;;1.80;1.70;;;15.00;98.80;;;;;;5058440;28;20032;-76
2021/05/31 01:20:56;;;;;;;1.88;1.77;;;15.00;98.70;;;;;;5075845;28;20058;-75
2021/05/31 01:23:30;;;;;;;3.28;2.03;;;15.00;99.00;;;;;;5076416;28;20094;-75
2021/05/31 01:26:11;;;;;;;2.17;1.60;;;15.10;98.90;;;;;;5058147;28;20025;-75
2021/05/31 01:28:55;;;;;;;2.30;2.10;;;15.10;99.00;;;;;;5075085;28;20513;-73
2021/05/31 01:31:31;;;;;;;1.80;1.70;;;15.10;99.00;;;;;;5074990;28;20462;-75
2021/05/31 01:33:57;;;;;;;2.85;1.95;;;15.10;98.90;;;;;;5058378;28;20041;-74
2021/05/31 01:36:25;;;;;;;2.03;1.83;;;15.10;98.90;;;;;;5074979;28;20416;-75
2021/05/31 01:38:55;;;;;;;1.83;1.73;;;15.10;98.90;;;;;;5074988;28;20052;-75
2021/05/31 01:41:26;;;;;;;2.50;2.15;;;15.10;99.20;;;;;;5053419;28;20106;-75
2021/05/31 01:43:54;;;;;;;1.90;1.70;;;15.10;99.00;;;;;;5073583;28;20021;-75
2021/05/31 01:46:23;;;;;;;1.85;1.73;;;15.10;99.00;;;;;;5057102;28;20029;-75
2021/05/31 01:48:51;;;;;;;4.13;1.80;;;15.10;98.90;;;;;;5074965;28;20029;-75
2021/05/31 01:51:22;;;;;;;1.70;1.60;;;15.10;99.00;;;;;;5075155;28;20025;-75
2021/05/31 01:53:50;;;;;;;2.25;2.05;;;15.10;99.10;;;;;;5075029;28;20024;-74
2021/05/31 01:56:25;;;;;;;1.88;1.77;;;15.10;99.00;;;;;;5040623;28;20060;-75
2021/05/31 01:58:56;;;;;;;2.10;2.00;;;15.10;99.00;;;;;;5040645;28;20493;-75
2021/05/31 02:01:24;;;;;;;2.15;1.95;;;15.10;98.80;;;;;;5040619;28;20055;-74
2021/05/31 02:03:50;;;;;;;2.05;1.95;;;15.10;98.90;;;;;;5074157;28;20027;-75
2021/05/31 02:06:16;;;;;;;2.28;2.00;;;15.10;98.70;;;;;;5056664;28;20370;-75
2021/05/31 02:08:41;;;;;;;1.77;1.67;;;15.10;98.80;;;;;;5074309;28;20031;-76
2021/05/31 02:11:22;;;;;;;1.90;1.80;;;15.10;98.60;;;;;;5074533;28;20033;-75
2021/05/31 02:13:52;;;;;;;2.38;1.80;;;15.10;98.70;;;;;;5073104;28;20440;-75
2021/05/31 02:16:36;;;;;;;3.22;2.60;;;15.10;98.80;;;;;;5056122;28;20036;-75
2021/05/31 02:19:06;;;;;;;2.75;1.75;;;15.10;98.70;;;;;;5056353;28;20031;-74
2021/05/31 02:21:35;;;;;;;1.92;1.83;;;15.10;98.60;;;;;;5041386;28;20105;-76
2021/05/31 02:24:02;;;;;;;1.90;1.80;;;15.00;98.80;;;;;;5056662;28;20040;-76
2021/05/31 02:26:32;;;;;;;2.30;2.08;;;15.00;99.00;;;;;;5039750;28;20032;-76
2021/05/31 02:28:58;;;;;;;1.70;1.60;;;15.10;99.10;;;;;;5074378;28;20032;-75
2021/05/31 02:31:24;;;;;;;1.77;1.67;;;15.10;99.10;;;;;;5074496;28;20032;-75
2021/05/31 02:33:52;;;;;;;2.47;2.00;;;15.10;99.00;;;;;;5055883;28;20493;-74
2021/05/31 02:36:23;;;;;;;1.95;1.85;;;15.20;98.70;;;;;;5073636;28;20024;-75
2021/05/31 02:38:52;;;;;;;2.20;2.00;;;15.10;98.60;;;;;;5055871;28;20478;-75
2021/05/31 02:41:20;;;;;;;1.90;1.80;;;15.10;98.80;;;;;;5056040;28;20021;-73
2021/05/31 02:43:46;;;;;;;1.92;1.83;;;15.10;98.60;;;;;;5047371;28;20021;-75
2021/05/31 02:46:14;;;;;;;2.10;2.00;;;15.20;98.60;;;;;;5053608;28;20027;-75
2021/05/31 02:48:43;;;;;;;1.88;1.77;;;15.20;98.50;;;;;;5053913;28;20032;-75
2021/05/31 02:51:08;;;;;;;1.80;1.70;;;15.20;98.70;;;;;;5053739;28;20029;-74
2021/05/31 02:53:35;;;;;;;4.32;2.20;;;15.20;98.80;;;;;;5019749;28;20033;-74
2021/05/31 02:56:02;;;;;;;2.00;1.90;;;15.20;98.60;;;;;;5053037;28;20028;-74
2021/05/31 02:58:31;;;;;;;2.45;2.22;;;15.20;98.40;;;;;;5053322;28;20024;-74
2021/05/31 03:00:57;;;;;;;3.47;2.20;;;15.20;98.30;;;;;;5036062;28;20029;-75
2021/05/31 03:03:24;;;;;;;2.50;2.30;;;15.20;98.60;;;;;;5053333;28;20055;-75
2021/05/31 03:05:50;;;;;;;2.20;2.10;;;15.20;98.70;;;;;;5053605;28;20029;-75
2021/05/31 03:08:16;;;;;;;3.03;2.22;;;15.20;98.50;;;;;;5035550;28;20021;-75
2021/05/31 03:10:41;;;;;;;3.78;2.30;;;15.20;98.50;;;;;;5053452;28;20040;-75
2021/05/31 03:13:12;;;;;;;2.30;2.10;;;15.20;98.70;;;;;;5053463;28;20143;-74
2021/05/31 03:15:41;;;;;;;2.10;1.90;;;15.20;98.80;;;;;;5052953;28;20025;-75
2021/05/31 03:18:11;;;;;;;2.50;2.30;;;15.30;98.70;;;;;;5003461;28;20037;-76
2021/05/31 03:20:37;;;;;;;;;;;15.30;98.80;;;;;;5053626;28;20017;-73
2021/05/31 03:23:03;;;;;;;2.22;2.13;;;15.30;98.50;;;;;;5053236;28;19905;-75
2021/05/31 03:25:30;;;;;;;3.13;2.50;;;15.30;98.70;;;;;;5034773;28;20021;-76
2021/05/31 03:28:01;;;;;;;2.85;2.60;;;15.20;98.80;;;;;;5041450;28;20042;-74
2021/05/31 03:30:30;;;;;;;3.17;2.85;;;15.30;98.20;;;;;;5034428;28;20029;-76
2021/05/31 03:32:56;;;;;;;3.58;2.50;;;15.30;98.10;;;;;;5033581;28;20076;-75
2021/05/31 03:35:23;;;;;;;2.97;2.60;;;15.30;98.30;;;;;;5033504;28;20025;-75
2021/05/31 03:37:48;;;;;;;2.60;2.40;;;15.30;98.40;;;;;;5016184;28;20472;-74
2021/05/31 03:40:21;;;;;;;2.45;2.25;;;15.30;98.50;;;;;;5034000;28;20072;-75
2021/05/31 03:42:46;;;;;;;3.22;2.40;;;15.30;98.70;;;;;;5033274;28;20493;-75
2021/05/31 03:45:15;;;;;;;2.90;2.40;;;15.40;98.70;;;;;;5034321;28;20096;-75
2021/05/31 03:47:47;;;;;;;3.38;2.30;;;15.40;98.20;;;;;;5033679;28;20022;-75
2021/05/31 03:50:19;;;;;;;3.80;2.40;;;15.40;98.00;;;;;;5004313;28;20383;-74
2021/05/31 03:52:46;;;;;;;2.95;2.65;;;15.40;98.00;;;;;;5020428;28;20026;-75
2021/05/31 03:55:14;;;;;;;2.30;2.10;;;15.40;98.10;;;;;;5019762;28;20029;-76
2021/05/31 03:57:40;;;;;;;5.05;2.17;;;15.40;98.30;;;;;;5038279;28;20044;-76
2021/05/31 04:00:08;;;;;;;3.55;2.33;;;15.40;98.30;;;;;;5020190;28;20033;-75
2021/05/31 04:02:40;;;;;;;4.20;2.40;;;15.40;98.30;;;;;;5037404;28;20056;-75
2021/05/31 04:05:08;;;;;;;3.78;2.50;;;15.40;97.90;;;;;;5020131;28;20041;-75
2021/05/31 04:13:02;;;;;;;3.00;2.70;;;15.50;97.60;;;;;;5037062;28;20036;-76
2021/05/31 04:15:27;;;;;;;3.88;2.70;;;15.50;97.40;;;;;;5019460;28;20025;-76
2021/05/31 04:17:56;;;;;;;2.58;2.38;;;15.50;97.30;;;;;;5037633;28;20037;-75
2021/05/31 04:20:30;;;;;;;2.75;2.33;;;15.50;97.50;;;;;;5037232;28;20029;-75
2021/05/31 04:22:55;;;;;;;4.63;2.10;;;15.50;97.40;;;;;;5020347;28;20021;-75
2021/05/31 04:25:26;;;;;;;2.30;2.10;;;15.50;97.00;;;;;;5037326;28;20071;-75
2021/05/31 04:27:51;;;;;;;;;;;15.50;97.20;;;;;;5021987;28;20048;-76
2021/05/31 04:30:18;;;;;;;2.80;2.17;;;15.50;97.00;;;;;;5056630;28;19908;-76
2021/05/31 04:32:43;;;;;;;2.75;2.35;;;15.50;97.50;;;;;;5055112;28;20703;-75
2021/05/31 04:35:11;;;;;;;3.15;2.50;;;15.60;97.40;;;;;;5056512;28;20025;-75
2021/05/31 04:37:39;;;;;;;4.05;2.30;;;15.60;97.30;;;;;;5055271;28;20119;-75
2021/05/31 04:40:11;;;;;;;2.60;2.40;;;15.60;97.30;;;;;;5054746;28;20045;-75
2021/05/31 04:42:37;;;;;;;3.03;2.33;;;15.60;97.20;;;;;;5053858;28;20059;-74
2021/05/31 04:45:08;;;;;;;2.28;2.08;;;15.60;96.80;;;;;;5054553;28;20064;-74
2021/05/31 04:47:39;;;;;;;1.70;1.60;;;15.60;96.70;;;;;;5055958;28;20108;-75
2021/05/31 04:50:09;;;;;;;1.70;1.60;;;15.60;96.70;;;;;;5056373;28;20110;-75
2021/05/31 04:52:35;;;;;;;3.07;1.90;;;15.60;96.60;;;;;;5056248;28;20497;-74
2021/05/31 04:55:03;;;;;;;4.88;2.67;;;15.60;96.90;;;;;;5055764;28;20021;-75
2021/05/31 04:57:30;;;;;;;2.35;2.15;;;15.60;96.60;;;;;;5054653;28;20493;-76
2021/05/31 04:59:57;;;;;;;2.50;2.30;;;15.60;96.80;;;;;;5054353;28;20028;-75
2021/05/31 05:02:23;;;;;;;2.47;2.28;;;15.60;97.00;;;;;;5038263;28;20025;-73
2021/05/31 05:04:48;;;;;;;2.70;2.45;;;15.60;96.90;;;;;;5054359;28;20091;-75
2021/05/31 05:07:14;;;;;;;2.60;2.33;;;15.70;96.30;;;;;;5055898;28;20029;-76
2021/05/31 05:09:41;;;;;;;2.72;2.45;;;15.60;96.20;;;;;;5055544;28;20509;-76
2021/05/31 05:12:10;;;;;;;2.97;2.28;;;15.60;96.20;;;;;;5053861;28;20033;-75
2021/05/31 05:14:42;;;;;;;2.13;1.92;;;15.60;96.60;;;;;;5054405;28;20538;-76
2021/05/31 05:17:08;;;;;;;3.10;2.47;;;15.60;96.50;;;;;;5055315;28;20056;-74
2021/05/31 05:19:39;;;;;;;2.20;2.00;;;15.60;96.30;;;;;;5055649;28;20467;-74
2021/05/31 05:22:11;;;;;;;5.07;2.30;;;15.60;96.00;;;;;;5055475;28;20025;-75
2021/05/31 05:24:50;;;;;;;3.92;2.60;;;15.60;96.20;;;;;;5055008;28;20521;-75
2021/05/31 05:27:25;;;;;;;;;;;;;;;;;;;;;
2021/05/31 05:29:59;;;;;;;3.50;2.40;;;15.60;95.90;;;;;;5056199;28;20455;-76
2021/05/31 05:32:30;;;;;;;7.47;2.38;;;15.60;96.20;;;;;;5055688;28;20033;-75
2021/05/31 05:35:07;;;;;;;2.58;2.15;;;15.60;96.10;;;;;;5054154;28;20052;-76
2021/05/31 05:48:43;;;;;;;3.72;2.25;;;15.70;95.20;;;;;;5055513;28;20390;-76
2021/05/31 05:51:11;;;;;;;2.30;2.10;;;15.60;95.30;;;;;;5053134;28;20056;-74
2021/05/31 05:53:46;;;;;;;3.80;2.30;;;15.60;95.50;;;;;;5054701;28;20061;-76
2021/05/31 05:56:23;;;;;;;3.17;2.17;;;15.70;95.30;;;;;;5055936;28;20029;-74
2021/05/31 05:58:51;;;;;;;2.90;2.03;;;15.70;95.30;;;;;;5037749;28;20025;-75
2021/05/31 06:01:19;;;;;;;2.97;2.28;;;15.70;95.20;;;;;;5055419;28;20024;-77
2021/05/31 06:03:55;;;;;;;3.25;2.10;;;15.70;94.90;;;;;;5054320;28;20021;-76
2021/05/31 06:06:25;;;;;;;1.90;1.75;;;15.70;95.00;;;;;;5055693;28;20052;-75
2021/05/31 06:08:51;;;;;;;2.53;1.60;;;15.70;94.70;;;;;;5055097;28;20405;-76
2021/05/31 06:11:29;;;;;;;;;;;;;;;;;;;;;
2021/05/31 06:13:57;;;;;;;1.45;1.35;;;15.70;94.90;;;;;;5054469;28;20393;-76
2021/05/31 06:16:23;;;;;;;1.73;1.35;;;15.70;94.30;;;;;;5054876;28;20482;-77
2021/05/31 06:18:51;;;;;;;10.30;2.00;;;15.80;94.10;;;;;;5037553;28;20025;-76
2021/05/31 06:21:29;;;;;;;1.80;1.70;;;15.90;94.30;;;;;;5055042;28;20032;-75
2021/05/31 06:24:00;;;;;;;1.73;1.63;;;15.90;94.60;;;;;;5055084;28;20073;-75
2021/05/31 06:26:38;;;;;;;2.05;1.67;;;16.00;94.60;;;;;;5053505;28;20021;-76
2021/05/31 06:29:07;;;;;;;2.03;1.85;;;16.00;94.40;;;;;;5054452;28;20075;-76
2021/05/31 06:31:52;;;;;;;2.38;2.15;;;16.00;94.40;;;;;;5054435;28;20017;-76
2021/05/31 06:34:18;;;;;;;3.22;2.50;;;16.10;94.60;;;;;;5036812;28;20025;-77
2021/05/31 06:36:48;;;;;;;4.03;2.78;;;16.10;94.50;;;;;;5054123;28;20025;-74
2021/05/31 06:39:14;;;;;;;3.20;2.90;;;16.20;94.40;;;;;;5054366;28;20125;-77
2021/05/31 06:41:40;;;;;;;3.50;3.15;;;16.20;94.20;;;;;;5053653;28;20056;-76
2021/05/31 06:44:11;;;;;;;3.65;2.95;;;16.10;94.20;;;;;;5035659;28;20037;-74
2021/05/31 06:46:44;;;;;;;5.13;3.25;;;16.10;94.20;;;;;;5052569;28;20033;-76
2021/05/31 06:49:13;;;;;;;3.58;2.90;;;16.10;94.20;;;;;;5053594;28;20053;-77
2021/05/31 06:51:48;;;;;;;3.10;2.70;;;16.10;94.00;;;;;;5053372;28;20082;-75
2021/05/31 06:54:18;;;;;;;3.28;2.97;;;16.10;94.10;;;;;;5053841;28;20390;-75
2021/05/31 06:56:52;;;;;;;2.90;2.70;;;16.10;94.20;;;;;;5052040;28;20170;-75
2021/05/31 06:59:18;;;;;;;2.97;2.70;;;16.20;94.30;;;;;;5051836;28;20028;-75
2021/05/31 07:01:44;;;;;;;2.72;2.47;;;16.20;94.20;;;;;;5051547;28;20036;-74
2021/05/31 07:04:26;;;;;;;3.67;2.95;;;16.20;94.10;;;;;;5053111;28;20029;-74
2021/05/31 07:06:55;;;;;;;2.38;2.17;;;16.20;94.20;;;;;;5053143;28;20375;-75
2021/05/31 07:09:28;;;;;;;3.88;2.30;;;16.30;94.60;;;;;;5053170;28;20021;-75
2021/05/31 07:11:54;;;;;;;2.42;2.22;;;16.40;94.30;;;;;;5052615;28;20421;-77
2021/05/31 07:14:32;;;;;;;2.67;2.47;;;16.40;94.30;;;;;;5053253;28;20029;-74
2021/05/31 07:17:01;;;;;;;2.47;2.10;;;16.50;94.10;;;;;;5051664;28;20029;-75
2021/05/31 07:19:30;;;;;;;1.98;1.70;;;16.50;93.80;;;;;;5052640;28;20035;-74
2021/05/31 07:21:59;;;;;;;2.23;2.03;;;16.50;93.40;;;;;;5052549;28;20028;-74
2021/05/31 07:24:27;;;;;;;3.47;2.10;;;16.40;93.40;;;;;;5052241;28;20029;-75
2021/05/31 07:26:56;;;;;;;4.05;2.05;;;16.50;93.20;;;;;;5048268;28;20041;-74
2021/05/31 07:29:31;;;;;;;3.83;2.20;;;16.40;93.30;;;;;;5015130;28;20475;-74
2021/05/31 07:31:57;;;;;;;2.72;2.53;;;16.40;92.90;;;;;;5032184;28;20083;-73
2021/05/31 07:34:23;;;;;;;2.28;2.10;;;16.40;93.00;;;;;;5032239;28;20029;-74
2021/05/31 07:36:51;;;;;;;2.70;2.40;;;16.40;93.30;;;;;;5031628;28;20067;-73
2021/05/31 07:39:20;;;;;;;3.70;2.25;;;16.60;93.40;;;;;;5019294;28;20491;-75
2021/05/31 07:41:48;;;;;;;3.38;2.60;;;16.70;93.10;;;;;;5033487;28;20026;-76
2021/05/31 07:44:14;;;;;;;2.70;2.50;;;16.80;92.90;;;;;;5032992;28;20438;-74
2021/05/31 07:46:40;;;;;;;2.50;2.30;;;16.80;92.70;;;;;;5032502;28;20017;-75
2021/05/31 07:49:05;;;;;;;2.97;2.30;;;16.80;92.90;;;;;;5032333;28;20079;-74
2021/05/31 07:51:33;;;;;;;2.72;2.15;;;16.90;92.60;;;;;;5032766;28;20490;-76
2021/05/31 07:54:02;;;;;;;2.22;2.03;;;17.00;92.10;;;;;;5031389;28;20028;-74
2021/05/31 07:56:28;;;;;;;2.00;1.90;;;17.00;92.10;;;;;;5015180;28;20033;-74
2021/05/31 07:58:58;;;;;;;3.65;2.22;;;17.10;92.00;;;;;;5032498;28;20022;-75
2021/05/31 08:01:24;;;;;;;2.97;2.05;;;17.10;91.60;;;;;;5015307;28;20057;-75
2021/05/31 08:03:50;;;;;;;2.47;2.28;;;17.10;91.80;;;;;;5031208;28;20040;-74
2021/05/31 08:06:16;;;;;;;2.30;2.20;;;17.20;92.00;;;;;;5032263;28;20025;-75
2021/05/31 08:08:44;;;;;;;2.35;2.15;;;17.20;92.00;;;;;;5031734;28;20033;-75
2021/05/31 08:11:10;;;;;;;2.10;1.90;;;17.20;92.00;;;;;;5014564;28;20063;-74
2021/05/31 08:13:42;;;;;;;2.85;2.03;;;17.20;92.20;;;;;;5032257;28;20499;-74
2021/05/31 08:16:09;;;;;;;3.25;2.30;;;17.30;91.90;;;;;;5032153;28;20029;-75
2021/05/31 08:18:37;;;;;;;2.00;1.85;;;17.20;91.80;;;;;;5032041;28;20025;-74
2021/05/31 08:21:08;;;;;;;2.58;2.15;;;17.20;91.90;;;;;;5032242;28;20134;-74
2021/05/31 08:23:43;;;;;;;3.42;2.05;;;17.10;91.60;;;;;;5032299;28;20029;-74
2021/05/31 08:26:20;;;;;;;3.42;2.70;;;17.00;91.90;;;;;;5032167;28;20030;-75
2021/05/31 08:28:49;;;;;;;5.00;2.80;;;17.00;91.60;;;;;;5032977;28;20095;-74
2021/05/31 08:31:32;;;;;;;;;;;;;;;;;;;;;
2021/05/31 08:34:09;;;;;;;3.53;2.03;;;16.80;91.60;;;;;;5033877;28;20040;-74
2021/05/31 08:36:35;;;;;;;3.65;2.40;;;16.70;91.90;;;;;;5022530;28;20040;-74
2021/05/31 08:39:09;;;;;;;4.80;2.70;;;16.70;92.20;;;;;;5036840;28;20034;-73
2021/05/31 08:41:38;;;;;;;2.03;1.92;;;16.70;91.50;;;;;;5035419;28;20414;-75
2021/05/31 08:44:07;;;;;;;2.70;2.50;;;16.70;91.80;;;;;;5035792;28;20017;-74
2021/05/31 08:46:42;;;;;;;2.13;1.92;;;16.80;92.00;;;;;;5035814;28;20053;-74
2021/05/31 08:49:11;;;;;;;2.53;1.65;;;16.70;91.80;;;;;;5020549;28;20152;-74
2021/05/31 08:51:38;;;;;;;1.20;1.20;;;16.70;91.40;;;;;;5036669;28;20518;-74
2021/05/31 08:54:19;;;;;;;3.38;1.67;;;16.70;91.80;;;;;;5036785;28;20086;-73
2021/05/31 08:56:44;;;;;;;1.80;1.50;;;16.70;91.40;;;;;;5035669;28;20029;-74
2021/05/31 08:59:14;;;;;;;1.63;1.52;;;16.70;91.20;;;;;;5035566;28;20038;-73
2021/05/31 09:02:03;;;;;;;1.60;1.50;;;16.60;91.10;;;;;;5035828;28;20026;-74
2021/05/31 09:04:47;;;;;;;1.50;1.40;;;16.50;91.30;;;;;;5036608;28;20036;-75
2021/05/31 09:07:17;;;;;;;1.80;1.70;;;16.50;91.50;;;;;;5014187;28;20112;-74
2021/05/31 09:09:57;;;;;;;1.30;1.20;;;16.50;91.80;;;;;;5036319;28;20029;-74
2021/05/31 09:12:38;;;;;;;1.70;1.60;;;16.40;91.60;;;;;;5035095;28;20029;-74
2021/05/31 09:15:10;;;;;;;2.08;1.63;;;16.50;91.30;;;;;;5036440;28;20030;-75
2021/05/31 09:17:41;;;;;;;1.52;1.42;;;16.50;91.50;;;;;;5036653;28;20078;-74
2021/05/31 09:20:09;;;;;;;1.77;1.67;;;16.60;91.60;;;;;;5035252;28;20037;-73
2021/05/31 09:23:04;;;;;;;2.03;1.77;;;16.70;91.30;;;;;;5035237;28;20030;-73
2021/05/31 09:25:34;;;;;;;1.58;1.48;;;16.70;91.20;;;;;;5019337;28;20146;-73
2021/05/31 09:28:13;;;;;;;1.55;1.45;;;16.80;91.20;;;;;;5059555;28;20036;-74
2021/05/31 09:30:44;;;;;;;2.13;1.35;;;17.00;90.90;;;;;;5056770;28;20471;-73
2021/05/31 09:33:14;;;;;;;1.98;1.50;;;17.10;90.70;;;;;;5072306;28;20028;-76
2021/05/31 09:35:42;;;;;;;1.60;1.50;;;17.20;90.00;;;;;;5056780;28;20040;-73
2021/05/31 09:38:08;;;;;;;1.25;1.20;;;17.20;90.40;;;;;;5074358;28;20051;-73
2021/05/31 09:40:36;;;;;;;1.73;1.27;;;17.30;90.40;;;;;;5056595;28;20105;-73
2021/05/31 09:43:12;;;;;;;1.40;1.30;;;17.40;90.00;;;;;;5056422;28;20027;-74
2021/05/31 09:45:48;;;;;;;1.10;1.10;;;17.40;89.80;;;;;;5074024;28;20473;-74
2021/05/31 09:48:26;;;;;;;1.30;1.20;;;17.50;90.00;;;;;;5058544;28;20105;-76
2021/05/31 09:50:58;;;;;;;1.23;1.17;;;17.70;88.90;;;;;;5056854;28;20386;-75
2021/05/31 09:53:33;;;;;;;1.00;1.00;;;17.80;90.00;;;;;;5074854;28;20021;-76
2021/05/31 09:55:59;;;;;;;1.77;1.10;;;17.90;90.10;;;;;;5074245;28;20099;-75
2021/05/31 09:58:30;;;;;;;1.02;1.02;;;18.20;89.60;;;;;;5074240;28;20542;-73
2021/05/31 10:01:02;;;;;;;1.05;1.00;;;18.30;88.60;;;;;;5039938;28;20119;-75
2021/05/31 10:03:47;;;;;;;0.90;0.90;;;18.50;87.90;;;;;;5066132;28;20071;-73
2021/05/31 10:06:22;;;;;;;0.77;0.77;;;18.60;88.00;;;;;;5053975;28;20025;-74
2021/05/31 10:08:53;;;;;;;1.63;1.00;;;18.70;87.60;;;;;;5036585;28;20415;-73
2021/05/31 10:11:19;;;;;;;0.70;0.70;;;18.80;86.10;;;;;;5053888;28;20025;-74
2021/05/31 10:13:47;;;;;;;0.75;0.75;;;18.70;86.00;;;;;;5054046;28;20025;-74
2021/05/31 10:16:16;;;;;;;1.10;1.10;;;18.70;85.60;;;;;;5035980;28;20386;-73
2021/05/31 10:18:54;;;;;;;0.80;0.80;;;18.70;86.00;;;;;;5035771;28;20039;-73
2021/05/31 10:21:38;;;;;;;1.00;1.00;;;18.70;85.70;;;;;;5053375;28;20096;-74
2021/05/31 10:24:12;;;;;;;0.82;0.82;;;18.80;84.70;;;;;;5038564;28;20083;-73
2021/05/31 10:26:39;;;;;;;1.00;1.00;;;18.80;83.50;;;;;;5054063;28;20029;-74
2021/05/31 10:29:05;;;;;;;1.77;0.90;;;18.70;84.10;;;;;;5052430;28;20118;-73
2021/05/31 10:31:53;;;;;;;0.90;0.90;;;18.80;83.60;;;;;;5054623;28;20403;-73
2021/05/31 10:34:23;;;;;;;1.05;1.05;;;18.70;83.90;;;;;;5054138;28;20029;-74
2021/05/31 10:36:55;;;;;;;1.65;1.15;;;18.70;82.40;;;;;;5054985;28;20021;-76
2021/05/31 10:39:25;;;;;;;0.90;0.90;;;18.70;82.00;;;;;;5037276;28;20034;-75
2021/05/31 10:42:02;;;;;;;2.30;1.13;;;18.80;82.60;;;;;;5053207;28;20025;-72
2021/05/31 10:44:30;;;;;;;0.90;0.90;;;18.80;83.00;;;;;;5053526;28;20366;-73
2021/05/31 10:47:15;;;;;;;0.93;0.90;;;18.80;81.50;;;;;;5054701;28;20482;-74
2021/05/31 10:50:02;;;;;;;1.50;1.40;;;18.90;81.90;;;;;;5054974;28;20035;-73
2021/05/31 10:52:30;;;;;;;2.67;1.83;;;19.00;82.40;;;;;;5053109;28;20067;-74
2021/05/31 10:55:06;;;;;;;1.27;1.17;;;19.00;81.30;;;;;;5053249;28;20039;-74
2021/05/31 10:57:38;;;;;;;1.30;1.20;;;19.00;81.70;;;;;;5053616;28;20025;-73
2021/05/31 11:00:27;;;;;;;1.67;1.10;;;19.00;81.60;;;;;;5054375;28;20056;-74
2021/05/31 11:03:09;;;;;;;0.90;0.90;;;19.00;82.30;;;;;;5053516;28;20453;-73
2021/05/31 11:05:35;;;;;;;1.08;1.05;;;19.10;81.30;;;;;;5053178;28;20029;-74
2021/05/31 11:08:07;;;;;;;1.35;1.25;;;19.00;81.90;;;;;;5053115;28;20029;-73
2021/05/31 11:10:34;;;;;;;2.92;1.38;;;19.00;81.10;;;;;;5054587;28;20063;-73
2021/05/31 11:13:21;;;;;;;1.20;1.10;;;18.90;81.90;;;;;;5054572;28;20025;-74
2021/05/31 11:16:06;;;;;;;0.90;0.90;;;18.70;82.60;;;;;;5054159;28;20474;-73
2021/05/31 11:18:40;;;;;;;1.20;1.20;;;18.50;82.90;;;;;;5054207;28;20036;-73
2021/05/31 11:21:07;;;;;;;1.25;1.20;;;18.30;83.40;;;;;;5036566;28;20025;-73
2021/05/31 11:23:33;;;;;;;4.25;2.00;;;18.20;83.10;;;;;;5054380;28;20139;-73
2021/05/31 11:26:01;;;;;;;2.63;1.40;;;18.00;83.60;;;;;;5053916;28;20028;-73
2021/05/31 11:28:29;;;;;;;1.05;1.05;;;17.90;85.00;;;;;;5062174;28;20040;-73
2021/05/31 11:30:56;;;;;;;3.13;1.10;;;17.90;85.00;;;;;;5055887;28;20041;-73
2021/05/31 11:33:30;;;;;;;1.10;0.98;;;17.90;85.40;;;;;;5034829;28;20036;-73
2021/05/31 11:36:05;;;;;;;1.02;0.98;;;17.90;84.20;;;;;;5034091;28;20132;-73
2021/05/31 11:38:33;;;;;;;1.08;0.95;;;17.90;85.50;;;;;;5052141;28;20025;-73
2021/05/31 11:41:07;;;;;;;0.85;0.85;;;18.00;85.30;;;;;;5034278;28;20025;-73
2021/05/31 11:43:53;;;;;;;0.60;0.60;;;18.10;84.00;;;;;;5051971;28;20028;-73
2021/05/31 11:46:20;;;;;;;0.93;0.80;;;18.10;83.90;;;;;;5052056;28;20024;-74
2021/05/31 11:48:49;;;;;;;0.90;0.90;;;18.10;84.40;;;;;;5034565;28;20033;-74
2021/05/31 11:51:35;;;;;;;0.73;0.73;;;18.10;84.40;;;;;;5032705;28;20083;-74
2021/05/31 11:54:00;;;;;;;2.80;0.70;;;18.10;84.30;;;;;;4998977;28;20101;-74
2021/05/31 11:56:36;;;;;;;1.50;0.70;;;18.00;84.10;;;;;;5032494;28;20565;-74
2021/05/31 11:59:03;;;;;;;0.68;0.63;;;18.00;84.70;;;;;;5038533;28;20032;-74
2021/05/31 12:01:29;;;;;;;0.60;0.60;;;18.00;84.30;;;;;;5072280;28;20352;-73
2021/05/31 12:03:56;;;;;;;0.60;0.47;;;18.00;84.50;;;;;;5072202;28;20025;-74
2021/05/31 12:06:22;;;;;;;0.57;0.57;;;18.00;84.30;;;;;;5054368;28;20073;-74
2021/05/31 12:08:49;;;;;;;0.52;0.52;;;18.00;84.40;;;;;;5054778;28;20530;-76
2021/05/31 12:11:22;;;;;;;0.85;0.63;;;18.10;83.60;;;;;;5075956;28;20028;-73
2021/05/31 12:13:48;;;;;;;0.50;0.50;;;18.20;82.80;;;;;;5058527;28;20029;-74
2021/05/31 12:16:15;;;;;;;0.70;0.70;;;18.20;83.00;;;;;;5076326;28;20474;-73
2021/05/31 12:18:44;;;;;;;1.45;0.63;;;18.20;82.00;;;;;;5075730;28;20056;-74
2021/05/31 12:21:10;;;;;;;1.33;0.77;;;18.20;82.30;;;;;;5074139;28;20021;-73
2021/05/31 12:23:36;;;;;;;0.60;0.60;;;18.20;83.10;;;;;;5041511;28;20355;-83
2021/05/31 12:26:04;;;;;;;1.20;0.68;;;18.20;82.50;;;;;;5075998;28;20024;-73
2021/05/31 12:28:35;;;;;;;0.68;0.68;;;18.10;81.70;;;;;;5075208;28;20071;-74
2021/05/31 12:31:01;;;;;;;1.83;0.63;;;18.00;82.50;;;;;;5076837;28;20474;-73
2021/05/31 12:33:29;;;;;;;1.35;0.65;;;17.90;82.50;;;;;;5077290;28;20505;-73
2021/05/31 12:36:02;;;;;;;1.10;0.85;;;17.80;83.10;;;;;;5077436;28;20421;-75
2021/05/31 12:38:30;;;;;;;1.60;1.50;;;17.80;83.40;;;;;;5060534;28;20050;-80
2021/05/31 12:40:59;;;;;;;0.88;0.82;;;17.80;84.20;;;;;;5077007;28;20040;-74
2021/05/31 12:43:37;;;;;;;2.45;1.75;;;17.70;84.70;;;;;;5076817;28;20031;-75
2021/05/31 12:46:03;;;;;;;3.05;1.92;;;17.80;84.70;;;;;;5059186;28;20055;-73
2021/05/31 12:48:31;;;;;;;1.35;1.25;;;17.70;85.20;;;;;;5077233;28;20024;-73
2021/05/31 12:51:16;;;;;;;1.35;1.17;;;17.70;85.10;;;;;;5077273;28;20032;-74
2021/05/31 12:53:48;;;;;;;1.20;1.10;;;17.70;84.70;;;;;;5076805;28;20031;-74
2021/05/31 12:56:17;;;;;;;0.80;0.80;;;17.70;84.90;;;;;;5058887;28;20164;-73
2021/05/31 12:58:43;;;;;;;1.17;1.08;;;17.60;85.00;;;;;;5048605;28;20108;-80
2021/05/31 13:01:09;;;;;;;1.05;0.93;;;17.50;84.60;;;;;;5038815;28;20112;-74
2021/05/31 13:03:38;;;;;;;1.00;0.90;;;17.50;85.10;;;;;;5038081;28;20115;-75
2021/05/31 13:06:11;;;;;;;0.70;0.70;;;17.40;85.60;;;;;;5038492;28;20021;-79
2021/05/31 13:08:47;;;;;;;0.75;0.75;;;17.30;86.30;;;;;;5038813;28;20028;-74
2021/05/31 13:11:14;;;;;;;0.73;0.55;;;17.30;85.70;;;;;;5022343;28;20443;-74
2021/05/31 13:13:45;;;;;;;1.65;0.70;;;17.30;86.30;;;;;;5056385;28;20029;-74
2021/05/31 13:16:11;;;;;;;0.90;0.90;;;17.20;86.40;;;;;;5038302;28;20029;-74
2021/05/31 13:18:41;;;;;;;0.68;0.68;;;17.30;86.60;;;;;;5055721;28;20565;-74
2021/05/31 13:21:16;;;;;;;0.95;0.77;;;17.30;86.70;;;;;;5055033;28;20046;-74
2021/05/31 13:23:45;;;;;;;1.23;0.50;;;17.30;85.50;;;;;;5043375;28;20025;-74